To NAV CANADA Home Page Login to a new session Search on AWWS site Feedback and Comments Disclaimer Vers la page française équivalente Tips FAQ What's new on the site To the Forecasts and Observations / NOTAM section To "File a Flight Plan" website Publications and other links Update of the User's profile FIC Telephone Numbers My Weather Data Folder Route Weather Data Regional Weather Data Local Weather Data To the Forecasts and Observations / NOTAM section
Request Generated 07/05/2015 at 21:01:09 UTC . Weather information available at that time is displayed.

METAR/TAF

YARMOUTH/NS    

METAR CYQI 052000Z 26010KT 12SM FEW010 FEW030 FEW120 18/15 A3002 RMK
SF1SC1AC1 SF TR SC TR AC TR SLP167 DENSITY ALT 300FT=
METAR CYQI 051900Z 27008KT 12SM FEW030 FEW150 18/16 A3002 RMK SC1AC1
SC TR AC TR SLP165 DENSITY ALT 400FT=
METAR CYQI 051800Z 25011KT 15SM FEW010 FEW030 FEW250 18/15 A3002 RMK
SF1SC1CI1 SF TR SC TR CI TR SLP166 DENSITY ALT 300FT=

TAF CYQI 051738Z 0518/0606 26011KT P6SM FEW030
BECMG 0523/0601 25008KT
RMK NXT FCST BY 060000Z=
Your time UTC time
Weather data provided by Environment Canada and NAV CANADA